sensor_id;sensor_type;location;lat;lon;timestamp;P1;durP1;ratioP1;P2;durP2;ratioP2
72123;SDS011;63818;37.134;-8.548;2023-04-06T00:03:31;12.9;;;7.0;;
72123;SDS011;63818;37.134;-8.548;2023-04-06T00:08:17;16.3;;;6.2;;
72123;SDS011;63818;37.134;-8.548;2023-04-06T00:13:06;18.2;;;6.2;;
72123;SDS011;63818;37.134;-8.548;2023-04-06T00:17:52;13.6;;;6.1;;
72123;SDS011;63818;37.134;-8.548;2023-04-06T00:22:39;14.0;;;6.2;;
72123;SDS011;63818;37.134;-8.548;2023-04-06T00:27:25;13.1;;;6.1;;
72123;SDS011;63818;37.134;-8.548;2023-04-06T00:32:11;11.0;;;5.7;;
72123;SDS011;63818;37.134;-8.548;2023-04-06T00:36:57;11.4;;;5.5;;
72123;SDS011;63818;37.134;-8.548;2023-04-06T00:41:45;12.9;;;5.5;;
72123;SDS011;63818;37.134;-8.548;2023-04-06T00:46:35;15.2;;;6.0;;
72123;SDS011;63818;37.134;-8.548;2023-04-06T00:51:22;12.9;;;5.9;;
72123;SDS011;63818;37.134;-8.548;2023-04-06T00:56:09;11.6;;;5.5;;
72123;SDS011;63818;37.134;-8.548;2023-04-06T01:00:55;13.8;;;5.6;;
72123;SDS011;63818;37.134;-8.548;2023-04-06T01:05:43;16.2;;;5.7;;
72123;SDS011;63818;37.134;-8.548;2023-04-06T01:10:32;15.8;;;5.7;;
72123;SDS011;63818;37.134;-8.548;2023-04-06T01:15:18;13.6;;;5.4;;
72123;SDS011;63818;37.134;-8.548;2023-04-06T01:20:06;12.6;;;5.5;;
72123;SDS011;63818;37.134;-8.548;2023-04-06T01:24:53;11.2;;;5.7;;
72123;SDS011;63818;37.134;-8.548;2023-04-06T01:29:39;9.2;;;5.5;;
72123;SDS011;63818;37.134;-8.548;2023-04-06T01:34:25;9.4;;;5.5;;
72123;SDS011;63818;37.134;-8.548;2023-04-06T01:39:12;9.1;;;5.3;;
72123;SDS011;63818;37.134;-8.548;2023-04-06T01:44:00;10.5;;;5.9;;
72123;SDS011;63818;37.134;-8.548;2023-04-06T01:48:46;10.6;;;5.9;;
72123;SDS011;63818;37.134;-8.548;2023-04-06T01:53:32;11.2;;;5.5;;
72123;SDS011;63818;37.134;-8.548;2023-04-06T01:58:19;14.1;;;5.6;;
72123;SDS011;63818;37.134;-8.548;2023-04-06T02:03:05;12.3;;;5.6;;
72123;SDS011;63818;37.134;-8.548;2023-04-06T02:07:52;11.3;;;5.7;;
72123;SDS011;63818;37.134;-8.548;2023-04-06T02:12:38;13.5;;;5.8;;
72123;SDS011;63818;37.134;-8.548;2023-04-06T02:17:24;14.4;;;5.6;;
72123;SDS011;63818;37.134;-8.548;2023-04-06T02:22:11;15.0;;;5.5;;
72123;SDS011;63818;37.134;-8.548;2023-04-06T02:26:57;13.7;;;5.6;;
72123;SDS011;63818;37.134;-8.548;2023-04-06T02:31:43;11.8;;;6.2;;
72123;SDS011;63818;37.134;-8.548;2023-04-06T02:36:30;12.4;;;6.2;;
72123;SDS011;63818;37.134;-8.548;2023-04-06T02:41:16;11.8;;;5.5;;
72123;SDS011;63818;37.134;-8.548;2023-04-06T02:46:02;11.4;;;5.9;;
72123;SDS011;63818;37.134;-8.548;2023-04-06T02:50:48;13.1;;;5.9;;
72123;SDS011;63818;37.134;-8.548;2023-04-06T02:55:35;12.9;;;5.4;;
72123;SDS011;63818;37.134;-8.548;2023-04-06T03:00:21;12.8;;;5.2;;
72123;SDS011;63818;37.134;-8.548;2023-04-06T03:05:07;12.7;;;5.4;;
72123;SDS011;63818;37.134;-8.548;2023-04-06T03:09:53;13.0;;;5.6;;
72123;SDS011;63818;37.134;-8.548;2023-04-06T03:14:40;12.3;;;5.3;;
72123;SDS011;63818;37.134;-8.548;2023-04-06T03:19:26;9.2;;;4.9;;
72123;SDS011;63818;37.134;-8.548;2023-04-06T03:24:14;10.4;;;5.2;;
72123;SDS011;63818;37.134;-8.548;2023-04-06T03:29:00;9.5;;;5.2;;
72123;SDS011;63818;37.134;-8.548;2023-04-06T03:33:47;10.8;;;5.1;;
72123;SDS011;63818;37.134;-8.548;2023-04-06T03:38:33;15.9;;;5.3;;
72123;SDS011;63818;37.134;-8.548;2023-04-06T03:43:19;14.5;;;5.5;;
72123;SDS011;63818;37.134;-8.548;2023-04-06T03:48:06;10.5;;;5.1;;
72123;SDS011;63818;37.134;-8.548;2023-04-06T03:52:54;10.8;;;4.8;;
72123;SDS011;63818;37.134;-8.548;2023-04-06T03:57:41;11.3;;;5.2;;
72123;SDS011;63818;37.134;-8.548;2023-04-06T04:02:27;10.8;;;5.2;;
72123;SDS011;63818;37.134;-8.548;2023-04-06T04:07:14;10.6;;;5.2;;
72123;SDS011;63818;37.134;-8.548;2023-04-06T04:12:00;10.7;;;5.5;;
72123;SDS011;63818;37.134;-8.548;2023-04-06T04:16:46;11.8;;;5.5;;
72123;SDS011;63818;37.134;-8.548;2023-04-06T04:21:33;10.7;;;5.3;;
72123;SDS011;63818;37.134;-8.548;2023-04-06T04:26:20;10.6;;;5.4;;
72123;SDS011;63818;37.134;-8.548;2023-04-06T04:31:06;11.4;;;5.3;;
72123;SDS011;63818;37.134;-8.548;2023-04-06T04:35:52;10.8;;;5.2;;
72123;SDS011;63818;37.134;-8.548;2023-04-06T04:40:38;9.8;;;5.2;;
72123;SDS011;63818;37.134;-8.548;2023-04-06T04:45:26;11.1;;;5.5;;
72123;SDS011;63818;37.134;-8.548;2023-04-06T04:50:12;11.2;;;5.4;;
72123;SDS011;63818;37.134;-8.548;2023-04-06T04:55:00;10.6;;;5.2;;
72123;SDS011;63818;37.134;-8.548;2023-04-06T04:59:47;10.4;;;5.3;;
72123;SDS011;63818;37.134;-8.548;2023-04-06T05:04:35;10.8;;;5.6;;
72123;SDS011;63818;37.134;-8.548;2023-04-06T05:09:21;11.4;;;5.7;;
72123;SDS011;63818;37.134;-8.548;2023-04-06T05:14:07;12.0;;;5.4;;
72123;SDS011;63818;37.134;-8.548;2023-04-06T05:18:53;13.6;;;5.2;;
72123;SDS011;63818;37.134;-8.548;2023-04-06T05:23:40;12.6;;;4.9;;
72123;SDS011;63818;37.134;-8.548;2023-04-06T05:28:26;9.9;;;4.8;;
72123;SDS011;63818;37.134;-8.548;2023-04-06T05:33:12;9.6;;;5.1;;
72123;SDS011;63818;37.134;-8.548;2023-04-06T05:37:59;12.9;;;5.4;;
72123;SDS011;63818;37.134;-8.548;2023-04-06T05:42:47;16.5;;;5.4;;
72123;SDS011;63818;37.134;-8.548;2023-04-06T05:47:33;14.5;;;5.2;;
72123;SDS011;63818;37.134;-8.548;2023-04-06T05:52:19;12.2;;;5.2;;
72123;SDS011;63818;37.134;-8.548;2023-04-06T05:57:06;15.5;;;5.5;;
72123;SDS011;63818;37.134;-8.548;2023-04-06T06:01:51;13.3;;;5.4;;
72123;SDS011;63818;37.134;-8.548;2023-04-06T06:06:37;9.1;;;5.2;;
72123;SDS011;63818;37.134;-8.548;2023-04-06T06:11:23;10.1;;;5.0;;
72123;SDS011;63818;37.134;-8.548;2023-04-06T06:16:09;10.4;;;5.2;;
72123;SDS011;63818;37.134;-8.548;2023-04-06T06:20:55;10.8;;;5.2;;
72123;SDS011;63818;37.134;-8.548;2023-04-06T06:25:41;13.9;;;5.2;;
72123;SDS011;63818;37.134;-8.548;2023-04-06T06:30:28;12.8;;;5.2;;
72123;SDS011;63818;37.134;-8.548;2023-04-06T06:35:14;12.2;;;5.2;;
72123;SDS011;63818;37.134;-8.548;2023-04-06T06:40:00;13.7;;;5.5;;
72123;SDS011;63818;37.134;-8.548;2023-04-06T06:44:48;12.4;;;5.6;;
72123;SDS011;63818;37.134;-8.548;2023-04-06T06:49:35;13.9;;;5.5;;
72123;SDS011;63818;37.134;-8.548;2023-04-06T06:54:20;14.2;;;5.7;;
72123;SDS011;63818;37.134;-8.548;2023-04-06T06:59:06;13.9;;;6.1;;
72123;SDS011;63818;37.134;-8.548;2023-04-06T07:03:52;14.7;;;6.3;;
72123;SDS011;63818;37.134;-8.548;2023-04-06T07:08:38;39.4;;;6.8;;
72123;SDS011;63818;37.134;-8.548;2023-04-06T07:13:24;33.8;;;6.5;;
72123;SDS011;63818;37.134;-8.548;2023-04-06T07:18:10;11.4;;;5.4;;
72123;SDS011;63818;37.134;-8.548;2023-04-06T07:22:57;14.8;;;5.3;;
72123;SDS011;63818;37.134;-8.548;2023-04-06T07:27:43;17.6;;;5.6;;
72123;SDS011;63818;37.134;-8.548;2023-04-06T07:32:29;14.3;;;5.3;;
72123;SDS011;63818;37.134;-8.548;2023-04-06T07:37:15;11.8;;;5.2;;
72123;SDS011;63818;37.134;-8.548;2023-04-06T07:42:01;14.9;;;5.5;;
72123;SDS011;63818;37.134;-8.548;2023-04-06T07:46:47;20.1;;;5.8;;
72123;SDS011;63818;37.134;-8.548;2023-04-06T07:51:35;17.1;;;5.7;;
72123;SDS011;63818;37.134;-8.548;2023-04-06T07:56:21;11.1;;;5.5;;
72123;SDS011;63818;37.134;-8.548;2023-04-06T08:01:07;10.3;;;5.4;;
72123;SDS011;63818;37.134;-8.548;2023-04-06T08:05:56;11.2;;;5.3;;
72123;SDS011;63818;37.134;-8.548;2023-04-06T08:10:45;14.6;;;5.3;;
72123;SDS011;63818;37.134;-8.548;2023-04-06T08:15:31;15.4;;;5.6;;
72123;SDS011;63818;37.134;-8.548;2023-04-06T08:20:17;15.4;;;5.7;;
72123;SDS011;63818;37.134;-8.548;2023-04-06T08:25:03;16.6;;;5.9;;
72123;SDS011;63818;37.134;-8.548;2023-04-06T08:29:50;16.8;;;6.0;;
72123;SDS011;63818;37.134;-8.548;2023-04-06T08:34:36;17.0;;;5.6;;
72123;SDS011;63818;37.134;-8.548;2023-04-06T08:39:22;17.1;;;5.5;;
72123;SDS011;63818;37.134;-8.548;2023-04-06T08:44:08;15.2;;;5.6;;
72123;SDS011;63818;37.134;-8.548;2023-04-06T08:48:55;10.4;;;5.3;;
72123;SDS011;63818;37.134;-8.548;2023-04-06T08:53:41;13.3;;;5.4;;
72123;SDS011;63818;37.134;-8.548;2023-04-06T08:58:28;18.1;;;5.7;;
72123;SDS011;63818;37.134;-8.548;2023-04-06T09:03:18;16.2;;;5.5;;
72123;SDS011;63818;37.134;-8.548;2023-04-06T09:08:06;13.1;;;5.4;;
72123;SDS011;63818;37.134;-8.548;2023-04-06T09:13:01;9.9;;;5.3;;
72123;SDS011;63818;37.134;-8.548;2023-04-06T09:17:52;11.4;;;5.2;;
72123;SDS011;63818;37.134;-8.548;2023-04-06T09:22:39;11.4;;;5.3;;
72123;SDS011;63818;37.134;-8.548;2023-04-06T09:27:32;8.8;;;5.1;;
72123;SDS011;63818;37.134;-8.548;2023-04-06T09:32:19;9.2;;;4.7;;
72123;SDS011;63818;37.134;-8.548;2023-04-06T09:37:14;8.7;;;4.5;;
72123;SDS011;63818;37.134;-8.548;2023-04-06T09:42:00;8.5;;;4.7;;
72123;SDS011;63818;37.134;-8.548;2023-04-06T09:46:47;10.6;;;4.7;;
72123;SDS011;63818;37.134;-8.548;2023-04-06T09:51:35;10.2;;;4.5;;
72123;SDS011;63818;37.134;-8.548;2023-04-06T09:56:23;10.2;;;4.8;;
72123;SDS011;63818;37.134;-8.548;2023-04-06T10:01:13;12.8;;;5.2;;
72123;SDS011;63818;37.134;-8.548;2023-04-06T10:06:03;12.5;;;5.1;;
72123;SDS011;63818;37.134;-8.548;2023-04-06T10:10:53;12.0;;;4.8;;
72123;SDS011;63818;37.134;-8.548;2023-04-06T10:15:40;11.2;;;4.7;;
72123;SDS011;63818;37.134;-8.548;2023-04-06T10:20:34;10.0;;;4.8;;
72123;SDS011;63818;37.134;-8.548;2023-04-06T10:25:30;11.9;;;4.8;;
72123;SDS011;63818;37.134;-8.548;2023-04-06T10:30:19;13.1;;;4.7;;
72123;SDS011;63818;37.134;-8.548;2023-04-06T10:35:11;12.4;;;4.8;;
72123;SDS011;63818;37.134;-8.548;2023-04-06T10:39:58;9.1;;;4.6;;
72123;SDS011;63818;37.134;-8.548;2023-04-06T10:44:46;9.2;;;4.4;;
72123;SDS011;63818;37.134;-8.548;2023-04-06T10:49:37;11.5;;;4.6;;
72123;SDS011;63818;37.134;-8.548;2023-04-06T10:54:24;8.9;;;4.6;;
72123;SDS011;63818;37.134;-8.548;2023-04-06T10:59:17;9.4;;;4.6;;
72123;SDS011;63818;37.134;-8.548;2023-04-06T11:04:09;11.8;;;4.5;;
72123;SDS011;63818;37.134;-8.548;2023-04-06T11:09:01;12.9;;;4.5;;
72123;SDS011;63818;37.134;-8.548;2023-04-06T11:13:48;12.7;;;4.9;;
72123;SDS011;63818;37.134;-8.548;2023-04-06T11:18:35;10.8;;;4.9;;
72123;SDS011;63818;37.134;-8.548;2023-04-06T11:23:24;9.2;;;4.7;;
72123;SDS011;63818;37.134;-8.548;2023-04-06T11:28:10;7.9;;;4.5;;
72123;SDS011;63818;37.134;-8.548;2023-04-06T11:33:00;9.0;;;4.5;;
72123;SDS011;63818;37.134;-8.548;2023-04-06T11:37:47;11.1;;;4.7;;
72123;SDS011;63818;37.134;-8.548;2023-04-06T11:42:34;10.2;;;4.6;;
72123;SDS011;63818;37.134;-8.548;2023-04-06T11:47:26;9.2;;;4.5;;
72123;SDS011;63818;37.134;-8.548;2023-04-06T11:52:17;9.6;;;4.6;;
72123;SDS011;63818;37.134;-8.548;2023-04-06T11:57:04;10.2;;;4.7;;
72123;SDS011;63818;37.134;-8.548;2023-04-06T12:01:51;10.1;;;4.6;;
72123;SDS011;63818;37.134;-8.548;2023-04-06T12:06:37;9.7;;;4.6;;
72123;SDS011;63818;37.134;-8.548;2023-04-06T12:11:23;11.0;;;4.7;;
72123;SDS011;63818;37.134;-8.548;2023-04-06T12:16:09;11.4;;;4.6;;
72123;SDS011;63818;37.134;-8.548;2023-04-06T12:20:56;10.0;;;4.6;;
72123;SDS011;63818;37.134;-8.548;2023-04-06T12:25:42;10.1;;;4.8;;
72123;SDS011;63818;37.134;-8.548;2023-04-06T12:30:28;14.3;;;4.9;;
72123;SDS011;63818;37.134;-8.548;2023-04-06T12:35:15;13.7;;;4.9;;
72123;SDS011;63818;37.134;-8.548;2023-04-06T12:40:04;10.6;;;5.0;;
72123;SDS011;63818;37.134;-8.548;2023-04-06T12:44:50;11.2;;;5.0;;
72123;SDS011;63818;37.134;-8.548;2023-04-06T12:49:36;13.2;;;5.2;;
72123;SDS011;63818;37.134;-8.548;2023-04-06T12:54:22;13.7;;;5.4;;
72123;SDS011;63818;37.134;-8.548;2023-04-06T12:59:08;10.7;;;5.3;;
72123;SDS011;63818;37.134;-8.548;2023-04-06T13:03:57;9.7;;;5.2;;
72123;SDS011;63818;37.134;-8.548;2023-04-06T13:08:43;10.6;;;5.3;;
72123;SDS011;63818;37.134;-8.548;2023-04-06T13:13:32;12.9;;;5.1;;
72123;SDS011;63818;37.134;-8.548;2023-04-06T13:18:18;12.3;;;4.7;;
72123;SDS011;63818;37.134;-8.548;2023-04-06T13:23:04;9.6;;;4.8;;
72123;SDS011;63818;37.134;-8.548;2023-04-06T13:27:51;10.6;;;5.1;;
72123;SDS011;63818;37.134;-8.548;2023-04-06T13:32:40;12.7;;;4.9;;
72123;SDS011;63818;37.134;-8.548;2023-04-06T13:37:31;14.2;;;4.8;;
72123;SDS011;63818;37.134;-8.548;2023-04-06T13:42:17;14.6;;;4.9;;
72123;SDS011;63818;37.134;-8.548;2023-04-06T13:47:06;12.6;;;4.8;;
72123;SDS011;63818;37.134;-8.548;2023-04-06T13:51:54;13.4;;;4.8;;
72123;SDS011;63818;37.134;-8.548;2023-04-06T13:56:40;11.4;;;4.7;;
72123;SDS011;63818;37.134;-8.548;2023-04-06T14:01:29;7.9;;;4.5;;
72123;SDS011;63818;37.134;-8.548;2023-04-06T14:06:15;12.8;;;4.7;;
72123;SDS011;63818;37.134;-8.548;2023-04-06T14:11:12;11.8;;;4.6;;
72123;SDS011;63818;37.134;-8.548;2023-04-06T14:15:58;9.5;;;4.4;;
72123;SDS011;63818;37.134;-8.548;2023-04-06T14:20:45;11.8;;;4.7;;
72123;SDS011;63818;37.134;-8.548;2023-04-06T14:25:35;11.1;;;4.8;;
72123;SDS011;63818;37.134;-8.548;2023-04-06T14:30:31;10.9;;;4.6;;
72123;SDS011;63818;37.134;-8.548;2023-04-06T14:35:17;14.7;;;4.7;;
72123;SDS011;63818;37.134;-8.548;2023-04-06T14:40:03;13.9;;;4.7;;
72123;SDS011;63818;37.134;-8.548;2023-04-06T14:44:51;9.2;;;4.5;;
72123;SDS011;63818;37.134;-8.548;2023-04-06T14:49:40;9.9;;;4.6;;
72123;SDS011;63818;37.134;-8.548;2023-04-06T14:54:28;13.0;;;4.8;;
72123;SDS011;63818;37.134;-8.548;2023-04-06T14:59:14;12.0;;;4.7;;
72123;SDS011;63818;37.134;-8.548;2023-04-06T15:04:04;9.5;;;4.5;;
72123;SDS011;63818;37.134;-8.548;2023-04-06T15:08:53;10.4;;;4.4;;
72123;SDS011;63818;37.134;-8.548;2023-04-06T15:13:39;10.2;;;4.5;;
72123;SDS011;63818;37.134;-8.548;2023-04-06T15:18:26;9.3;;;4.4;;
72123;SDS011;63818;37.134;-8.548;2023-04-06T15:23:17;8.6;;;4.4;;
72123;SDS011;63818;37.134;-8.548;2023-04-06T15:28:04;7.9;;;4.5;;
72123;SDS011;63818;37.134;-8.548;2023-04-06T15:32:55;9.6;;;4.7;;
72123;SDS011;63818;37.134;-8.548;2023-04-06T15:37:43;11.0;;;4.8;;
72123;SDS011;63818;37.134;-8.548;2023-04-06T15:42:29;9.4;;;4.7;;
72123;SDS011;63818;37.134;-8.548;2023-04-06T15:47:24;9.0;;;4.8;;
72123;SDS011;63818;37.134;-8.548;2023-04-06T15:52:10;11.1;;;4.8;;
72123;SDS011;63818;37.134;-8.548;2023-04-06T15:56:56;12.7;;;4.6;;
72123;SDS011;63818;37.134;-8.548;2023-04-06T16:01:42;14.7;;;4.9;;
72123;SDS011;63818;37.134;-8.548;2023-04-06T16:06:30;13.0;;;5.0;;
72123;SDS011;63818;37.134;-8.548;2023-04-06T16:11:19;11.9;;;4.8;;
72123;SDS011;63818;37.134;-8.548;2023-04-06T16:16:05;12.3;;;4.9;;
72123;SDS011;63818;37.134;-8.548;2023-04-06T16:20:54;9.8;;;4.7;;
72123;SDS011;63818;37.134;-8.548;2023-04-06T16:25:42;9.9;;;4.5;;
72123;SDS011;63818;37.134;-8.548;2023-04-06T16:30:33;9.8;;;4.6;;
72123;SDS011;63818;37.134;-8.548;2023-04-06T16:35:21;12.5;;;6.1;;
72123;SDS011;63818;37.134;-8.548;2023-04-06T16:40:11;12.5;;;6.5;;
72123;SDS011;63818;37.134;-8.548;2023-04-06T16:45:00;10.4;;;5.9;;
72123;SDS011;63818;37.134;-8.548;2023-04-06T16:49:45;11.0;;;6.2;;
72123;SDS011;63818;37.134;-8.548;2023-04-06T16:54:56;12.0;;;6.3;;
72123;SDS011;63818;37.134;-8.548;2023-04-06T16:59:45;10.1;;;5.5;;
72123;SDS011;63818;37.134;-8.548;2023-04-06T17:04:31;9.5;;;5.1;;
72123;SDS011;63818;37.134;-8.548;2023-04-06T17:09:23;11.3;;;5.2;;
72123;SDS011;63818;37.134;-8.548;2023-04-06T17:14:09;13.1;;;4.8;;
72123;SDS011;63818;37.134;-8.548;2023-04-06T17:19:02;15.4;;;4.6;;
72123;SDS011;63818;37.134;-8.548;2023-04-06T17:23:51;14.2;;;4.8;;
72123;SDS011;63818;37.134;-8.548;2023-04-06T17:28:39;13.0;;;5.0;;
72123;SDS011;63818;37.134;-8.548;2023-04-06T17:33:25;13.4;;;4.7;;
72123;SDS011;63818;37.134;-8.548;2023-04-06T17:38:15;11.2;;;4.5;;
72123;SDS011;63818;37.134;-8.548;2023-04-06T17:43:02;9.1;;;4.6;;
72123;SDS011;63818;37.134;-8.548;2023-04-06T17:47:48;9.8;;;4.8;;
72123;SDS011;63818;37.134;-8.548;2023-04-06T17:52:37;9.6;;;4.7;;
72123;SDS011;63818;37.134;-8.548;2023-04-06T17:57:26;9.1;;;4.5;;
72123;SDS011;63818;37.134;-8.548;2023-04-06T18:02:15;9.3;;;4.5;;
72123;SDS011;63818;37.134;-8.548;2023-04-06T18:07:02;10.2;;;4.7;;
72123;SDS011;63818;37.134;-8.548;2023-04-06T18:11:50;12.2;;;4.9;;
72123;SDS011;63818;37.134;-8.548;2023-04-06T18:16:41;12.5;;;5.3;;
72123;SDS011;63818;37.134;-8.548;2023-04-06T18:21:27;13.6;;;5.2;;
72123;SDS011;63818;37.134;-8.548;2023-04-06T18:26:16;14.9;;;4.9;;
72123;SDS011;63818;37.134;-8.548;2023-04-06T18:31:04;11.6;;;5.0;;
72123;SDS011;63818;37.134;-8.548;2023-04-06T18:35:50;11.8;;;5.9;;
72123;SDS011;63818;37.134;-8.548;2023-04-06T18:40:43;15.8;;;6.2;;
72123;SDS011;63818;37.134;-8.548;2023-04-06T18:45:30;16.4;;;6.3;;
72123;SDS011;63818;37.134;-8.548;2023-04-06T18:50:17;16.0;;;9.2;;
72123;SDS011;63818;37.134;-8.548;2023-04-06T18:55:08;15.8;;;9.4;;
72123;SDS011;63818;37.134;-8.548;2023-04-06T18:59:56;18.6;;;9.6;;
72123;SDS011;63818;37.134;-8.548;2023-04-06T19:04:43;17.2;;;9.4;;
72123;SDS011;63818;37.134;-8.548;2023-04-06T19:09:34;11.6;;;6.4;;
72123;SDS011;63818;37.134;-8.548;2023-04-06T19:14:20;11.5;;;5.6;;
72123;SDS011;63818;37.134;-8.548;2023-04-06T19:19:09;12.0;;;5.4;;
72123;SDS011;63818;37.134;-8.548;2023-04-06T19:23:56;11.2;;;5.8;;
72123;SDS011;63818;37.134;-8.548;2023-04-06T19:28:42;13.9;;;6.0;;
72123;SDS011;63818;37.134;-8.548;2023-04-06T19:33:29;14.6;;;6.8;;
72123;SDS011;63818;37.134;-8.548;2023-04-06T19:38:15;14.1;;;7.8;;
72123;SDS011;63818;37.134;-8.548;2023-04-06T19:43:01;17.7;;;7.4;;
72123;SDS011;63818;37.134;-8.548;2023-04-06T19:47:47;17.1;;;6.6;;
72123;SDS011;63818;37.134;-8.548;2023-04-06T19:52:32;15.7;;;7.1;;
72123;SDS011;63818;37.134;-8.548;2023-04-06T19:57:19;16.4;;;7.0;;
72123;SDS011;63818;37.134;-8.548;2023-04-06T20:02:05;16.3;;;6.1;;
72123;SDS011;63818;37.134;-8.548;2023-04-06T20:06:51;16.4;;;5.6;;
72123;SDS011;63818;37.134;-8.548;2023-04-06T20:11:39;15.9;;;5.8;;
72123;SDS011;63818;37.134;-8.548;2023-04-06T20:16:26;14.2;;;6.0;;
72123;SDS011;63818;37.134;-8.548;2023-04-06T20:21:12;12.5;;;5.7;;
72123;SDS011;63818;37.134;-8.548;2023-04-06T20:25:58;18.0;;;6.9;;
72123;SDS011;63818;37.134;-8.548;2023-04-06T20:30:44;24.0;;;8.9;;
72123;SDS011;63818;37.134;-8.548;2023-04-06T20:35:30;23.2;;;9.2;;
72123;SDS011;63818;37.134;-8.548;2023-04-06T20:40:16;22.3;;;9.1;;
72123;SDS011;63818;37.134;-8.548;2023-04-06T20:45:04;21.0;;;9.5;;
72123;SDS011;63818;37.134;-8.548;2023-04-06T20:49:50;21.2;;;8.9;;
72123;SDS011;63818;37.134;-8.548;2023-04-06T20:54:37;21.5;;;8.4;;
72123;SDS011;63818;37.134;-8.548;2023-04-06T20:59:23;21.0;;;8.9;;
72123;SDS011;63818;37.134;-8.548;2023-04-06T21:04:09;20.9;;;8.7;;
72123;SDS011;63818;37.134;-8.548;2023-04-06T21:08:55;19.4;;;8.1;;
72123;SDS011;63818;37.134;-8.548;2023-04-06T21:13:42;21.1;;;7.7;;
72123;SDS011;63818;37.134;-8.548;2023-04-06T21:18:28;19.1;;;7.3;;
72123;SDS011;63818;37.134;-8.548;2023-04-06T21:23:17;18.7;;;7.0;;
72123;SDS011;63818;37.134;-8.548;2023-04-06T21:28:07;23.5;;;7.4;;
72123;SDS011;63818;37.134;-8.548;2023-04-06T21:32:53;20.0;;;7.2;;
72123;SDS011;63818;37.134;-8.548;2023-04-06T21:37:39;19.4;;;6.8;;
72123;SDS011;63818;37.134;-8.548;2023-04-06T21:42:25;20.1;;;7.0;;
72123;SDS011;63818;37.134;-8.548;2023-04-06T21:47:13;16.5;;;6.9;;
72123;SDS011;63818;37.134;-8.548;2023-04-06T21:52:03;19.3;;;7.2;;
72123;SDS011;63818;37.134;-8.548;2023-04-06T21:56:51;19.0;;;7.3;;
72123;SDS011;63818;37.134;-8.548;2023-04-06T22:01:38;17.0;;;7.2;;
72123;SDS011;63818;37.134;-8.548;2023-04-06T22:06:26;15.4;;;7.2;;
72123;SDS011;63818;37.134;-8.548;2023-04-06T22:11:12;17.9;;;7.5;;
72123;SDS011;63818;37.134;-8.548;2023-04-06T22:16:03;19.1;;;8.0;;
72123;SDS011;63818;37.134;-8.548;2023-04-06T22:20:51;18.2;;;8.1;;
72123;SDS011;63818;37.134;-8.548;2023-04-06T22:25:37;24.0;;;8.0;;
72123;SDS011;63818;37.134;-8.548;2023-04-06T22:30:26;22.5;;;7.5;;
72123;SDS011;63818;37.134;-8.548;2023-04-06T22:35:14;20.2;;;7.7;;
72123;SDS011;63818;37.134;-8.548;2023-04-06T22:40:05;21.3;;;7.6;;
72123;SDS011;63818;37.134;-8.548;2023-04-06T22:44:52;20.6;;;7.1;;
72123;SDS011;63818;37.134;-8.548;2023-04-06T22:49:38;19.6;;;7.4;;
72123;SDS011;63818;37.134;-8.548;2023-04-06T22:54:24;22.4;;;7.3;;
72123;SDS011;63818;37.134;-8.548;2023-04-06T22:59:10;20.5;;;6.8;;
72123;SDS011;63818;37.134;-8.548;2023-04-06T23:03:56;13.5;;;6.5;;
72123;SDS011;63818;37.134;-8.548;2023-04-06T23:08:42;12.1;;;6.2;;
72123;SDS011;63818;37.134;-8.548;2023-04-06T23:13:33;13.2;;;6.3;;
72123;SDS011;63818;37.134;-8.548;2023-04-06T23:18:20;12.8;;;6.5;;
72123;SDS011;63818;37.134;-8.548;2023-04-06T23:23:08;15.4;;;6.2;;
72123;SDS011;63818;37.134;-8.548;2023-04-06T23:27:54;15.2;;;6.0;;
72123;SDS011;63818;37.134;-8.548;2023-04-06T23:32:42;13.4;;;6.4;;
72123;SDS011;63818;37.134;-8.548;2023-04-06T23:37:30;17.9;;;6.8;;
72123;SDS011;63818;37.134;-8.548;2023-04-06T23:42:18;17.7;;;6.6;;
72123;SDS011;63818;37.134;-8.548;2023-04-06T23:47:06;19.9;;;6.6;;
72123;SDS011;63818;37.134;-8.548;2023-04-06T23:51:56;20.2;;;6.7;;
72123;SDS011;63818;37.134;-8.548;2023-04-06T23:56:42;16.8;;;6.9;;
